Terminal Aerodrome Forecast
Issued by NWS Binghamton, NY

Home | Current Version | Previous Version | Text Only | Print | Product List | Glossary On
Versions: 1 2 3 4 5 6 7 8 9 10 11 12 13 14 15 16 17 18 19 20 21 22
000
FTUS41 KBGM 251400 AAB
TAFSYR
TAF AMD
KSYR 251415Z 2514/2612 32012KT P6SM SCT025 BKN035
      TEMPO 2514/2516 -SN OVC025
     FM251600 33011KT P6SM BKN035
     FM252200 36005KT P6SM FEW035 SCT200
     FM260300 05004KT P6SM OVC150=

USA.gov is the U.S. government's official web portal to all federal, state and local government web resources and services.